sensor_id;sensor_type;location;lat;lon;timestamp;pressure;altitude;pressure_sealevel;temperature;humidity
15314;BME280;7757;52.626;4.746;2022-10-16T00:00:34;100593.72;;;18.76;66.56
15314;BME280;7757;52.626;4.746;2022-10-16T00:03:02;100593.72;;;18.76;66.86
15314;BME280;7757;52.626;4.746;2022-10-16T00:05:29;100589.69;;;18.79;66.71
15314;BME280;7757;52.626;4.746;2022-10-16T00:07:57;100596.34;;;18.71;66.48
15314;BME280;7757;52.626;4.746;2022-10-16T00:10:24;100592.28;;;18.57;66.60
15314;BME280;7757;52.626;4.746;2022-10-16T00:12:50;100604.72;;;18.70;66.17
15314;BME280;7757;52.626;4.746;2022-10-16T00:15:17;100593.31;;;18.68;66.34
15314;BME280;7757;52.626;4.746;2022-10-16T00:17:44;100590.19;;;18.76;66.49
15314;BME280;7757;52.626;4.746;2022-10-16T00:20:10;100591.59;;;18.78;66.44
15314;BME280;7757;52.626;4.746;2022-10-16T00:22:37;100597.06;;;18.67;66.80
15314;BME280;7757;52.626;4.746;2022-10-16T00:25:05;100599.84;;;18.72;67.08
15314;BME280;7757;52.626;4.746;2022-10-16T00:27:32;100601.03;;;18.76;66.58
15314;BME280;7757;52.626;4.746;2022-10-16T00:29:59;100597.00;;;18.78;67.22
15314;BME280;7757;52.626;4.746;2022-10-16T00:32:25;100598.16;;;18.82;66.39
15314;BME280;7757;52.626;4.746;2022-10-16T00:34:52;100605.13;;;18.78;66.46
15314;BME280;7757;52.626;4.746;2022-10-16T00:37:19;100589.22;;;18.82;66.51
15314;BME280;7757;52.626;4.746;2022-10-16T00:39:46;100583.31;;;18.68;67.11
15314;BME280;7757;52.626;4.746;2022-10-16T00:42:16;100579.28;;;18.71;66.58
15314;BME280;7757;52.626;4.746;2022-10-16T00:44:53;100580.19;;;18.48;66.96
15314;BME280;7757;52.626;4.746;2022-10-16T00:47:25;100578.94;;;18.67;66.45
15314;BME280;7757;52.626;4.746;2022-10-16T00:50:01;100576.97;;;18.63;66.09
15314;BME280;7757;52.626;4.746;2022-10-16T00:52:29;100568.94;;;18.68;66.16
15314;BME280;7757;52.626;4.746;2022-10-16T00:54:56;100582.81;;;18.71;66.01
15314;BME280;7757;52.626;4.746;2022-10-16T00:57:25;100585.34;;;18.61;66.02
15314;BME280;7757;52.626;4.746;2022-10-16T00:59:53;100581.22;;;18.59;66.52
15314;BME280;7757;52.626;4.746;2022-10-16T01:02:19;100580.41;;;18.58;65.74
15314;BME280;7757;52.626;4.746;2022-10-16T01:04:48;100586.09;;;18.57;65.74
15314;BME280;7757;52.626;4.746;2022-10-16T01:07:29;100587.31;;;18.66;65.38
15314;BME280;7757;52.626;4.746;2022-10-16T01:10:11;100588.38;;;18.65;65.90
15314;BME280;7757;52.626;4.746;2022-10-16T01:12:44;100589.34;;;18.59;66.07
15314;BME280;7757;52.626;4.746;2022-10-16T01:15:17;100597.00;;;18.62;65.78
15314;BME280;7757;52.626;4.746;2022-10-16T01:17:50;100594.19;;;18.57;65.96
15314;BME280;7757;52.626;4.746;2022-10-16T01:20:25;100591.66;;;18.67;65.79
15314;BME280;7757;52.626;4.746;2022-10-16T01:23:15;100584.34;;;18.51;65.86
15314;BME280;7757;52.626;4.746;2022-10-16T01:25:59;100598.81;;;18.45;66.25
15314;BME280;7757;52.626;4.746;2022-10-16T01:28:36;100593.28;;;18.39;65.90
15314;BME280;7757;52.626;4.746;2022-10-16T01:31:05;100596.31;;;18.55;66.61
15314;BME280;7757;52.626;4.746;2022-10-16T01:33:35;100597.00;;;18.62;66.41
15314;BME280;7757;52.626;4.746;2022-10-16T01:36:10;100595.44;;;18.66;65.90
15314;BME280;7757;52.626;4.746;2022-10-16T01:38:39;100591.66;;;18.50;65.61
15314;BME280;7757;52.626;4.746;2022-10-16T01:41:09;100590.44;;;18.46;66.01
15314;BME280;7757;52.626;4.746;2022-10-16T01:43:40;100601.06;;;18.48;66.36
15314;BME280;7757;52.626;4.746;2022-10-16T01:46:08;100594.44;;;18.55;66.01
15314;BME280;7757;52.626;4.746;2022-10-16T01:48:36;100594.91;;;18.52;66.08
15314;BME280;7757;52.626;4.746;2022-10-16T01:51:06;100592.06;;;18.59;66.11
15314;BME280;7757;52.626;4.746;2022-10-16T01:53:34;100601.16;;;18.53;66.09
15314;BME280;7757;52.626;4.746;2022-10-16T01:56:04;100599.28;;;18.53;65.94
15314;BME280;7757;52.626;4.746;2022-10-16T01:58:35;100603.53;;;18.49;65.72
15314;BME280;7757;52.626;4.746;2022-10-16T02:01:07;100594.34;;;18.50;66.00
15314;BME280;7757;52.626;4.746;2022-10-16T02:03:36;100610.50;;;18.45;66.14
15314;BME280;7757;52.626;4.746;2022-10-16T02:06:04;100608.13;;;18.49;66.24
15314;BME280;7757;52.626;4.746;2022-10-16T02:08:30;100605.06;;;18.45;66.17
15314;BME280;7757;52.626;4.746;2022-10-16T02:10:58;100617.28;;;18.59;65.92
15314;BME280;7757;52.626;4.746;2022-10-16T02:13:29;100606.13;;;18.44;66.11
15314;BME280;7757;52.626;4.746;2022-10-16T02:15:57;100606.09;;;18.56;66.28
15314;BME280;7757;52.626;4.746;2022-10-16T02:18:26;100613.66;;;18.54;65.95
15314;BME280;7757;52.626;4.746;2022-10-16T02:20:57;100617.41;;;18.53;65.81
15314;BME280;7757;52.626;4.746;2022-10-16T02:23:34;100612.69;;;18.60;65.45
15314;BME280;7757;52.626;4.746;2022-10-16T02:26:04;100618.09;;;18.60;65.89
15314;BME280;7757;52.626;4.746;2022-10-16T02:28:38;100605.75;;;18.52;65.92
15314;BME280;7757;52.626;4.746;2022-10-16T02:31:08;100611.66;;;18.49;65.97
15314;BME280;7757;52.626;4.746;2022-10-16T02:33:38;100606.81;;;18.51;66.13
15314;BME280;7757;52.626;4.746;2022-10-16T02:36:07;100617.41;;;18.53;66.20
15314;BME280;7757;52.626;4.746;2022-10-16T02:38:34;100620.00;;;18.48;66.01
15314;BME280;7757;52.626;4.746;2022-10-16T02:41:02;100631.44;;;18.50;66.06
15314;BME280;7757;52.626;4.746;2022-10-16T02:43:29;100626.47;;;18.47;65.98
15314;BME280;7757;52.626;4.746;2022-10-16T02:45:56;100627.91;;;18.49;65.56
15314;BME280;7757;52.626;4.746;2022-10-16T02:48:22;100624.06;;;18.33;66.26
15314;BME280;7757;52.626;4.746;2022-10-16T02:50:50;100640.84;;;18.47;66.20
15314;BME280;7757;52.626;4.746;2022-10-16T02:53:17;100642.63;;;18.53;65.69
15314;BME280;7757;52.626;4.746;2022-10-16T02:55:43;100645.44;;;18.47;65.79
15314;BME280;7757;52.626;4.746;2022-10-16T02:58:10;100636.97;;;18.43;65.96
15314;BME280;7757;52.626;4.746;2022-10-16T03:00:36;100644.97;;;18.50;66.21
15314;BME280;7757;52.626;4.746;2022-10-16T03:03:05;100647.88;;;18.48;66.26
15314;BME280;7757;52.626;4.746;2022-10-16T03:05:32;100659.13;;;18.40;66.10
15314;BME280;7757;52.626;4.746;2022-10-16T03:08:00;100662.06;;;18.38;65.79
15314;BME280;7757;52.626;4.746;2022-10-16T03:10:26;100664.19;;;18.36;66.69
15314;BME280;7757;52.626;4.746;2022-10-16T03:12:53;100659.13;;;18.40;66.72
15314;BME280;7757;52.626;4.746;2022-10-16T03:15:19;100669.84;;;18.35;67.04
15314;BME280;7757;52.626;4.746;2022-10-16T03:17:46;100683.00;;;18.43;66.79
15314;BME280;7757;52.626;4.746;2022-10-16T03:20:12;100678.41;;;18.44;66.86
15314;BME280;7757;52.626;4.746;2022-10-16T03:22:39;100675.72;;;18.44;66.75
15314;BME280;7757;52.626;4.746;2022-10-16T03:25:08;100678.25;;;18.22;67.43
15314;BME280;7757;52.626;4.746;2022-10-16T03:27:34;100678.81;;;18.35;67.01
15314;BME280;7757;52.626;4.746;2022-10-16T03:30:01;100680.59;;;18.30;67.25
15314;BME280;7757;52.626;4.746;2022-10-16T03:32:27;100658.28;;;18.39;66.87
15314;BME280;7757;52.626;4.746;2022-10-16T03:34:54;100678.47;;;18.32;67.03
15314;BME280;7757;52.626;4.746;2022-10-16T03:37:22;100668.69;;;18.31;66.71
15314;BME280;7757;52.626;4.746;2022-10-16T03:39:48;100658.69;;;18.31;67.29
15314;BME280;7757;52.626;4.746;2022-10-16T03:42:16;100660.47;;;18.26;67.68
15314;BME280;7757;52.626;4.746;2022-10-16T03:44:43;100661.03;;;18.28;67.36
15314;BME280;7757;52.626;4.746;2022-10-16T03:47:09;100671.81;;;18.11;67.98
15314;BME280;7757;52.626;4.746;2022-10-16T03:49:36;100671.16;;;18.32;67.27
15314;BME280;7757;52.626;4.746;2022-10-16T03:52:03;100664.22;;;18.25;67.00
15314;BME280;7757;52.626;4.746;2022-10-16T03:54:30;100672.22;;;18.31;67.07
15314;BME280;7757;52.626;4.746;2022-10-16T03:56:56;100676.97;;;18.24;68.07
15314;BME280;7757;52.626;4.746;2022-10-16T03:59:24;100675.19;;;18.30;67.84
15314;BME280;7757;52.626;4.746;2022-10-16T04:01:51;100672.94;;;18.27;67.33
15314;BME280;7757;52.626;4.746;2022-10-16T04:04:18;100681.06;;;18.27;67.44
15314;BME280;7757;52.626;4.746;2022-10-16T04:06:44;100677.66;;;18.20;67.79
15314;BME280;7757;52.626;4.746;2022-10-16T04:09:11;100671.81;;;18.11;68.48
15314;BME280;7757;52.626;4.746;2022-10-16T04:11:37;100672.69;;;18.28;67.47
15314;BME280;7757;52.626;4.746;2022-10-16T04:14:04;100682.00;;;18.32;67.32
15314;BME280;7757;52.626;4.746;2022-10-16T04:16:32;100686.97;;;18.24;67.60
15314;BME280;7757;52.626;4.746;2022-10-16T04:18:58;100684.75;;;18.21;67.68
15314;BME280;7757;52.626;4.746;2022-10-16T04:21:25;100690.38;;;18.19;67.61
15314;BME280;7757;52.626;4.746;2022-10-16T04:23:51;100702.69;;;18.38;67.43
15314;BME280;7757;52.626;4.746;2022-10-16T04:26:18;100702.59;;;18.22;67.43
15314;BME280;7757;52.626;4.746;2022-10-16T04:28:44;100701.78;;;18.33;67.35
15314;BME280;7757;52.626;4.746;2022-10-16T04:31:11;100695.09;;;18.24;67.06
15314;BME280;7757;52.626;4.746;2022-10-16T04:33:42;100700.16;;;18.20;67.58
15314;BME280;7757;52.626;4.746;2022-10-16T04:36:09;100699.91;;;18.22;67.58
15314;BME280;7757;52.626;4.746;2022-10-16T04:38:36;100697.53;;;18.25;67.07
15314;BME280;7757;52.626;4.746;2022-10-16T04:41:05;100702.97;;;18.14;67.17
15314;BME280;7757;52.626;4.746;2022-10-16T04:43:32;100703.31;;;18.29;67.25
15314;BME280;7757;52.626;4.746;2022-10-16T04:45:58;100709.81;;;18.16;67.28
15314;BME280;7757;52.626;4.746;2022-10-16T04:48:25;100716.88;;;18.06;67.35
15314;BME280;7757;52.626;4.746;2022-10-16T04:50:53;100707.53;;;18.25;67.28
15314;BME280;7757;52.626;4.746;2022-10-16T04:53:19;100711.63;;;17.88;68.24
15314;BME280;7757;52.626;4.746;2022-10-16T04:55:46;100715.81;;;18.18;67.39
15314;BME280;7757;52.626;4.746;2022-10-16T04:58:12;100726.50;;;18.13;67.34
15314;BME280;7757;52.626;4.746;2022-10-16T05:00:39;100722.06;;;18.07;67.74
15314;BME280;7757;52.626;4.746;2022-10-16T05:03:06;100728.88;;;18.21;67.08
15314;BME280;7757;52.626;4.746;2022-10-16T05:05:34;100744.97;;;18.28;67.17
15314;BME280;7757;52.626;4.746;2022-10-16T05:08:02;100737.22;;;18.20;67.75
15314;BME280;7757;52.626;4.746;2022-10-16T05:10:29;100747.13;;;18.14;67.90
15314;BME280;7757;52.626;4.746;2022-10-16T05:12:55;100754.53;;;17.96;68.40
15314;BME280;7757;52.626;4.746;2022-10-16T05:15:22;100744.06;;;18.11;68.31
15314;BME280;7757;52.626;4.746;2022-10-16T05:17:52;100735.25;;;18.15;67.90
15314;BME280;7757;52.626;4.746;2022-10-16T05:20:19;100722.38;;;18.22;67.92
15314;BME280;7757;52.626;4.746;2022-10-16T05:22:45;100730.97;;;18.19;67.78
15314;BME280;7757;52.626;4.746;2022-10-16T05:25:13;100727.34;;;18.14;67.97
15314;BME280;7757;52.626;4.746;2022-10-16T05:27:40;100729.19;;;18.25;67.57
15314;BME280;7757;52.626;4.746;2022-10-16T05:30:07;100737.59;;;18.12;68.08
15314;BME280;7757;52.626;4.746;2022-10-16T05:32:34;100747.94;;;18.15;68.27
15314;BME280;7757;52.626;4.746;2022-10-16T05:35:00;100753.47;;;18.20;68.26
15314;BME280;7757;52.626;4.746;2022-10-16T05:37:27;100761.38;;;18.21;68.12
15314;BME280;7757;52.626;4.746;2022-10-16T05:39:54;100754.03;;;18.22;67.86
15314;BME280;7757;52.626;4.746;2022-10-16T05:42:21;100753.00;;;18.23;68.01
15314;BME280;7757;52.626;4.746;2022-10-16T05:44:48;100756.75;;;18.22;68.02
15314;BME280;7757;52.626;4.746;2022-10-16T05:47:14;100748.06;;;18.20;68.04
15314;BME280;7757;52.626;4.746;2022-10-16T05:49:41;100744.78;;;18.18;68.02
15314;BME280;7757;52.626;4.746;2022-10-16T05:52:07;100755.56;;;18.29;67.87
15314;BME280;7757;52.626;4.746;2022-10-16T05:54:34;100766.06;;;18.26;67.51
15314;BME280;7757;52.626;4.746;2022-10-16T05:57:01;100774.19;;;18.26;67.84
15314;BME280;7757;52.626;4.746;2022-10-16T05:59:29;100763.84;;;18.11;67.78
15314;BME280;7757;52.626;4.746;2022-10-16T06:01:55;100776.16;;;18.30;68.08
15314;BME280;7757;52.626;4.746;2022-10-16T06:04:22;100775.84;;;18.15;68.15
15314;BME280;7757;52.626;4.746;2022-10-16T06:06:49;100777.13;;;18.36;67.98
15314;BME280;7757;52.626;4.746;2022-10-16T06:09:15;100788.88;;;18.53;67.72
15314;BME280;7757;52.626;4.746;2022-10-16T06:11:42;100791.59;;;18.53;67.89
15314;BME280;7757;52.626;4.746;2022-10-16T06:14:08;100792.91;;;18.51;67.94
15314;BME280;7757;52.626;4.746;2022-10-16T06:16:37;100792.28;;;18.49;67.85
15314;BME280;7757;52.626;4.746;2022-10-16T06:19:04;100793.81;;;18.56;67.93
15314;BME280;7757;52.626;4.746;2022-10-16T06:21:33;100792.38;;;18.65;67.33
15314;BME280;7757;52.626;4.746;2022-10-16T06:24:00;100790.03;;;18.57;67.40
15314;BME280;7757;52.626;4.746;2022-10-16T06:26:28;100788.94;;;18.70;67.17
15314;BME280;7757;52.626;4.746;2022-10-16T06:28:56;100802.41;;;18.65;67.35
15314;BME280;7757;52.626;4.746;2022-10-16T06:31:23;100804.97;;;18.48;67.35
15314;BME280;7757;52.626;4.746;2022-10-16T06:33:54;100812.16;;;18.54;67.52
15314;BME280;7757;52.626;4.746;2022-10-16T06:36:22;100820.19;;;18.49;68.17
15314;BME280;7757;52.626;4.746;2022-10-16T06:38:49;100823.34;;;18.58;67.16
15314;BME280;7757;52.626;4.746;2022-10-16T06:41:17;100838.09;;;18.62;67.59
15314;BME280;7757;52.626;4.746;2022-10-16T06:43:44;100828.69;;;18.53;67.81
15314;BME280;7757;52.626;4.746;2022-10-16T06:46:12;100829.25;;;18.43;68.22
15314;BME280;7757;52.626;4.746;2022-10-16T06:48:39;100843.84;;;18.65;67.58
15314;BME280;7757;52.626;4.746;2022-10-16T06:51:11;100850.91;;;18.66;67.75
15314;BME280;7757;52.626;4.746;2022-10-16T06:53:40;100851.41;;;18.52;67.69
15314;BME280;7757;52.626;4.746;2022-10-16T06:56:08;100866.47;;;18.59;67.54
15314;BME280;7757;52.626;4.746;2022-10-16T06:58:35;100871.91;;;18.59;67.63
15314;BME280;7757;52.626;4.746;2022-10-16T07:01:02;100873.06;;;18.52;68.14
15314;BME280;7757;52.626;4.746;2022-10-16T07:03:29;100867.41;;;18.65;67.84
15314;BME280;7757;52.626;4.746;2022-10-16T07:05:56;100874.97;;;18.63;67.50
15314;BME280;7757;52.626;4.746;2022-10-16T07:08:23;100890.75;;;18.66;67.57
15314;BME280;7757;52.626;4.746;2022-10-16T07:10:58;100878.13;;;18.71;67.36
15314;BME280;7757;52.626;4.746;2022-10-16T07:13:24;100892.34;;;18.78;67.23
15314;BME280;7757;52.626;4.746;2022-10-16T07:15:51;100896.94;;;18.78;67.23
15314;BME280;7757;52.626;4.746;2022-10-16T07:18:17;100905.06;;;18.78;67.21
15314;BME280;7757;52.626;4.746;2022-10-16T07:20:44;100909.19;;;18.69;67.76
15314;BME280;7757;52.626;4.746;2022-10-16T07:23:10;100916.63;;;18.73;67.46
15314;BME280;7757;52.626;4.746;2022-10-16T07:25:38;100918.38;;;18.91;66.82
15314;BME280;7757;52.626;4.746;2022-10-16T07:28:05;100925.47;;;18.92;66.89
15314;BME280;7757;52.626;4.746;2022-10-16T07:30:35;100927.66;;;19.07;66.11
15314;BME280;7757;52.626;4.746;2022-10-16T07:33:02;100926.53;;;19.19;66.20
15314;BME280;7757;52.626;4.746;2022-10-16T07:35:29;100927.75;;;19.12;66.10
15314;BME280;7757;52.626;4.746;2022-10-16T07:37:55;100941.09;;;19.02;66.06
15314;BME280;7757;52.626;4.746;2022-10-16T07:40:22;100957.72;;;18.93;67.04
15314;BME280;7757;52.626;4.746;2022-10-16T07:42:50;100954.53;;;18.97;66.72
15314;BME280;7757;52.626;4.746;2022-10-16T07:45:16;100966.31;;;19.02;66.53
15314;BME280;7757;52.626;4.746;2022-10-16T07:47:43;100968.13;;;18.85;66.37
15314;BME280;7757;52.626;4.746;2022-10-16T07:50:09;100968.22;;;18.78;66.18
15314;BME280;7757;52.626;4.746;2022-10-16T07:52:36;100983.44;;;18.56;67.05
15314;BME280;7757;52.626;4.746;2022-10-16T07:55:03;100983.19;;;18.58;66.24
15314;BME280;7757;52.626;4.746;2022-10-16T07:57:29;100979.91;;;18.67;65.85
15314;BME280;7757;52.626;4.746;2022-10-16T07:59:58;100982.59;;;18.90;65.92
15314;BME280;7757;52.626;4.746;2022-10-16T08:02:24;100997.06;;;19.08;65.25
15314;BME280;7757;52.626;4.746;2022-10-16T08:04:51;100995.66;;;19.05;64.84
15314;BME280;7757;52.626;4.746;2022-10-16T08:07:17;101000.16;;;18.88;64.38
15314;BME280;7757;52.626;4.746;2022-10-16T08:09:44;101001.53;;;19.14;63.67
15314;BME280;7757;52.626;4.746;2022-10-16T08:12:10;101006.88;;;19.09;63.52
15314;BME280;7757;52.626;4.746;2022-10-16T08:14:37;101015.88;;;19.37;63.42
15314;BME280;7757;52.626;4.746;2022-10-16T08:17:05;101022.41;;;19.36;63.46
15314;BME280;7757;52.626;4.746;2022-10-16T08:19:31;101011.41;;;19.43;63.42
15314;BME280;7757;52.626;4.746;2022-10-16T08:21:59;101023.94;;;19.44;64.60
15314;BME280;7757;52.626;4.746;2022-10-16T08:24:26;101032.53;;;19.41;65.33
15314;BME280;7757;52.626;4.746;2022-10-16T08:26:53;101024.84;;;19.49;63.98
15314;BME280;7757;52.626;4.746;2022-10-16T08:29:19;101042.53;;;19.52;63.10
15314;BME280;7757;52.626;4.746;2022-10-16T08:31:46;101040.78;;;19.46;62.45
15314;BME280;7757;52.626;4.746;2022-10-16T08:34:14;101051.97;;;19.49;62.27
15314;BME280;7757;52.626;4.746;2022-10-16T08:36:40;101061.19;;;19.60;59.94
15314;BME280;7757;52.626;4.746;2022-10-16T08:39:07;101055.84;;;19.65;60.25
15314;BME280;7757;52.626;4.746;2022-10-16T08:44:40;101063.69;;;19.78;59.45
15314;BME280;7757;52.626;4.746;2022-10-16T08:47:17;101070.91;;;19.73;59.19
15314;BME280;7757;52.626;4.746;2022-10-16T08:49:55;101068.91;;;19.80;59.73
15314;BME280;7757;52.626;4.746;2022-10-16T08:52:25;101070.41;;;19.87;57.85
15314;BME280;7757;52.626;4.746;2022-10-16T08:54:55;101082.41;;;20.03;59.16
15314;BME280;7757;52.626;4.746;2022-10-16T08:57:24;101084.84;;;19.76;58.94
15314;BME280;7757;52.626;4.746;2022-10-16T08:59:52;101086.22;;;19.90;59.09
15314;BME280;7757;52.626;4.746;2022-10-16T09:02:26;101094.50;;;19.84;57.62
15314;BME280;7757;52.626;4.746;2022-10-16T09:05:09;101101.34;;;19.86;58.77
15314;BME280;7757;52.626;4.746;2022-10-16T09:07:46;101120.56;;;19.85;58.00
15314;BME280;7757;52.626;4.746;2022-10-16T09:10:23;101121.78;;;19.77;58.73
15314;BME280;7757;52.626;4.746;2022-10-16T09:12:58;101130.88;;;19.71;57.02
15314;BME280;7757;52.626;4.746;2022-10-16T09:15:32;101120.53;;;19.96;57.97
15314;BME280;7757;52.626;4.746;2022-10-16T09:18:07;101131.06;;;19.81;58.01
15314;BME280;7757;52.626;4.746;2022-10-16T09:20:47;101133.06;;;19.97;57.61
15314;BME280;7757;52.626;4.746;2022-10-16T09:23:17;101144.28;;;20.01;58.03
15314;BME280;7757;52.626;4.746;2022-10-16T09:25:47;101134.47;;;20.00;58.17
15314;BME280;7757;52.626;4.746;2022-10-16T09:28:15;101142.88;;;19.98;58.07
15314;BME280;7757;52.626;4.746;2022-10-16T09:30:42;101135.75;;;20.09;57.76
15314;BME280;7757;52.626;4.746;2022-10-16T09:33:11;101139.16;;;20.16;57.39
15314;BME280;7757;52.626;4.746;2022-10-16T09:35:42;101145.41;;;20.05;57.22
15314;BME280;7757;52.626;4.746;2022-10-16T09:38:09;101144.78;;;20.26;55.86
15314;BME280;7757;52.626;4.746;2022-10-16T09:40:47;101150.50;;;20.13;57.28
15314;BME280;7757;52.626;4.746;2022-10-16T09:43:22;101158.88;;;20.12;57.48
15314;BME280;7757;52.626;4.746;2022-10-16T09:46:00;101162.38;;;20.24;56.60
15314;BME280;7757;52.626;4.746;2022-10-16T09:48:31;101169.34;;;20.20;56.46
15314;BME280;7757;52.626;4.746;2022-10-16T09:51:03;101173.75;;;20.09;58.04
15314;BME280;7757;52.626;4.746;2022-10-16T09:53:39;101175.75;;;20.14;58.53
15314;BME280;7757;52.626;4.746;2022-10-16T09:56:06;101163.88;;;20.43;58.03
15314;BME280;7757;52.626;4.746;2022-10-16T09:58:34;101182.78;;;20.38;57.30
15314;BME280;7757;52.626;4.746;2022-10-16T10:01:00;101172.53;;;20.28;56.41
15314;BME280;7757;52.626;4.746;2022-10-16T10:03:36;101181.44;;;20.12;57.33
15314;BME280;7757;52.626;4.746;2022-10-16T10:06:16;101189.00;;;20.10;57.46
15314;BME280;7757;52.626;4.746;2022-10-16T10:08:54;101186.19;;;19.93;57.43
15314;BME280;7757;52.626;4.746;2022-10-16T10:11:36;101189.47;;;20.07;57.48
15314;BME280;7757;52.626;4.746;2022-10-16T10:14:04;101186.38;;;20.15;57.31
15314;BME280;7757;52.626;4.746;2022-10-16T10:16:31;101195.97;;;19.94;57.71
15314;BME280;7757;52.626;4.746;2022-10-16T10:18:58;101190.31;;;19.84;57.92
15314;BME280;7757;52.626;4.746;2022-10-16T10:21:26;101211.69;;;19.92;57.51
15314;BME280;7757;52.626;4.746;2022-10-16T10:23:55;101218.75;;;19.93;57.79
15314;BME280;7757;52.626;4.746;2022-10-16T10:26:24;101211.41;;;20.05;55.47
15314;BME280;7757;52.626;4.746;2022-10-16T10:29:00;101210.22;;;20.25;56.72
15314;BME280;7757;52.626;4.746;2022-10-16T10:31:34;101210.13;;;20.08;57.14
15314;BME280;7757;52.626;4.746;2022-10-16T10:34:20;101232.56;;;20.27;57.00
15314;BME280;7757;52.626;4.746;2022-10-16T10:36:57;101244.25;;;20.04;56.81
15314;BME280;7757;52.626;4.746;2022-10-16T10:39:33;101246.34;;;20.14;57.00
15314;BME280;7757;52.626;4.746;2022-10-16T10:42:12;101243.19;;;19.93;57.50
15314;BME280;7757;52.626;4.746;2022-10-16T10:47:56;101252.00;;;20.35;56.58
15314;BME280;7757;52.626;4.746;2022-10-16T10:50:32;101261.56;;;20.38;55.97
15314;BME280;7757;52.626;4.746;2022-10-16T10:53:06;101274.59;;;20.13;56.90
15314;BME280;7757;52.626;4.746;2022-10-16T10:55:40;101266.66;;;20.11;57.23
15314;BME280;7757;52.626;4.746;2022-10-16T10:58:27;101265.72;;;20.05;57.47
15314;BME280;7757;52.626;4.746;2022-10-16T11:01:02;101266.66;;;20.23;56.42
15314;BME280;7757;52.626;4.746;2022-10-16T11:03:50;101272.22;;;19.93;57.35
15314;BME280;7757;52.626;4.746;2022-10-16T11:06:27;101278.75;;;19.92;58.04
15314;BME280;7757;52.626;4.746;2022-10-16T11:09:00;101281.34;;;20.10;57.62
15314;BME280;7757;52.626;4.746;2022-10-16T11:11:31;101282.03;;;20.05;57.18
15314;BME280;7757;52.626;4.746;2022-10-16T11:14:03;101280.84;;;20.25;57.14
15314;BME280;7757;52.626;4.746;2022-10-16T11:16:35;101288.88;;;20.08;57.67
15314;BME280;7757;52.626;4.746;2022-10-16T11:19:10;101281.09;;;19.88;57.69
15314;BME280;7757;52.626;4.746;2022-10-16T11:21:44;101292.06;;;19.93;57.90
15314;BME280;7757;52.626;4.746;2022-10-16T11:24:20;101294.09;;;19.75;58.18
15314;BME280;7757;52.626;4.746;2022-10-16T11:26:51;101288.28;;;19.71;57.86
15314;BME280;7757;52.626;4.746;2022-10-16T11:29:22;101302.34;;;19.68;57.43
15314;BME280;7757;52.626;4.746;2022-10-16T11:31:53;101300.94;;;19.89;57.69
15314;BME280;7757;52.626;4.746;2022-10-16T11:34:25;101308.13;;;19.95;58.09
15314;BME280;7757;52.626;4.746;2022-10-16T11:36:58;101315.44;;;19.94;57.48
15314;BME280;7757;52.626;4.746;2022-10-16T11:39:30;101310.47;;;19.68;57.97
15314;BME280;7757;52.626;4.746;2022-10-16T11:42:02;101317.44;;;19.76;57.76
15314;BME280;7757;52.626;4.746;2022-10-16T11:47:28;101325.34;;;19.77;58.06
15314;BME280;7757;52.626;4.746;2022-10-16T11:50:00;101317.56;;;19.81;57.86
15314;BME280;7757;52.626;4.746;2022-10-16T11:52:31;101327.91;;;19.72;58.41
15314;BME280;7757;52.626;4.746;2022-10-16T11:55:08;101332.22;;;19.91;57.65
15314;BME280;7757;52.626;4.746;2022-10-16T11:57:43;101325.59;;;19.87;58.16
15314;BME280;7757;52.626;4.746;2022-10-16T12:00:20;101327.13;;;19.95;57.97
15314;BME280;7757;52.626;4.746;2022-10-16T12:02:58;101332.88;;;19.75;57.63
15314;BME280;7757;52.626;4.746;2022-10-16T12:05:32;101330.44;;;19.97;57.97
15314;BME280;7757;52.626;4.746;2022-10-16T12:08:08;101339.41;;;19.97;57.19
15314;BME280;7757;52.626;4.746;2022-10-16T12:10:38;101343.31;;;20.01;57.21
15314;BME280;7757;52.626;4.746;2022-10-16T12:13:29;101338.59;;;20.09;57.79
15314;BME280;7757;52.626;4.746;2022-10-16T12:16:05;101336.81;;;20.02;57.54
15314;BME280;7757;52.626;4.746;2022-10-16T12:18:31;101348.75;;;20.01;57.84
15314;BME280;7757;52.626;4.746;2022-10-16T12:20:59;101346.97;;;19.95;56.83
15314;BME280;7757;52.626;4.746;2022-10-16T12:23:31;101351.47;;;20.01;57.88
15314;BME280;7757;52.626;4.746;2022-10-16T12:26:01;101350.47;;;19.84;57.01
15314;BME280;7757;52.626;4.746;2022-10-16T12:28:29;101344.00;;;19.97;57.02
15314;BME280;7757;52.626;4.746;2022-10-16T12:30:58;101356.66;;;20.03;57.03
15314;BME280;7757;52.626;4.746;2022-10-16T12:33:26;101350.63;;;20.24;57.16
15314;BME280;7757;52.626;4.746;2022-10-16T12:35:54;101356.06;;;20.01;56.97
15314;BME280;7757;52.626;4.746;2022-10-16T12:38:26;101350.03;;;19.99;57.09
15314;BME280;7757;52.626;4.746;2022-10-16T12:40:57;101347.31;;;19.99;56.63
15314;BME280;7757;52.626;4.746;2022-10-16T12:43:35;101353.47;;;19.94;56.49
15314;BME280;7757;52.626;4.746;2022-10-16T12:46:05;101356.38;;;19.81;57.87
15314;BME280;7757;52.626;4.746;2022-10-16T12:48:32;101367.97;;;19.88;57.23
15314;BME280;7757;52.626;4.746;2022-10-16T12:51:10;101358.06;;;19.94;56.85
15314;BME280;7757;52.626;4.746;2022-10-16T12:53:37;101358.16;;;19.99;56.56
15314;BME280;7757;52.626;4.746;2022-10-16T12:56:10;101353.34;;;20.01;55.97
15314;BME280;7757;52.626;4.746;2022-10-16T12:58:53;101353.56;;;19.88;55.69
15314;BME280;7757;52.626;4.746;2022-10-16T13:01:34;101355.94;;;20.08;56.12
15314;BME280;7757;52.626;4.746;2022-10-16T13:04:14;101351.22;;;20.15;56.64
15314;BME280;7757;52.626;4.746;2022-10-16T13:06:52;101359.16;;;20.16;56.48
15314;BME280;7757;52.626;4.746;2022-10-16T13:09:39;101360.66;;;20.12;55.43
15314;BME280;7757;52.626;4.746;2022-10-16T13:12:28;101371.66;;;20.17;56.52
15314;BME280;7757;52.626;4.746;2022-10-16T13:15:16;101376.97;;;20.00;56.22
15314;BME280;7757;52.626;4.746;2022-10-16T13:17:53;101363.59;;;19.87;56.69
15314;BME280;7757;52.626;4.746;2022-10-16T13:20:29;101370.00;;;20.04;56.61
15314;BME280;7757;52.626;4.746;2022-10-16T13:23:09;101376.00;;;19.95;56.46